createdAt,value
2022-10-03T00:00:40.948Z,11.38
2022-10-03T00:03:43.570Z,11.31
2022-10-03T00:06:47.335Z,11.27
2022-10-03T00:09:56.569Z,11.22
2022-10-03T00:13:01.917Z,11.17
2022-10-03T00:16:04.246Z,11.13
2022-10-03T00:19:01.912Z,11.08
2022-10-03T00:22:01.559Z,11.02
2022-10-03T00:25:07.315Z,10.97
2022-10-03T00:28:17.850Z,10.93
2022-10-03T00:31:13.646Z,10.87
2022-10-03T00:34:19.862Z,10.83
2022-10-03T00:37:30.327Z,10.76
2022-10-03T00:40:56.971Z,10.70
2022-10-03T00:44:18.905Z,10.62
2022-10-03T00:47:48.409Z,10.56
2022-10-03T00:51:01.126Z,10.51
2022-10-03T00:53:52.989Z,10.48
2022-10-03T00:57:03.625Z,10.45
2022-10-03T01:00:06.280Z,10.42
2022-10-03T01:03:20.046Z,10.38
2022-10-03T01:06:20.713Z,10.34
2022-10-03T01:09:42.549Z,10.31
2022-10-03T01:12:57.504Z,10.26
2022-10-03T01:15:56.190Z,10.23
2022-10-03T01:18:59.459Z,10.21
2022-10-03T01:22:00.103Z,10.15
2022-10-03T01:24:58.687Z,10.13
2022-10-03T01:28:15.525Z,10.10
2022-10-03T01:31:09.667Z,10.05
2022-10-03T01:34:07.014Z,9.99
2022-10-03T01:37:11.032Z,9.97
2022-10-03T01:40:08.512Z,9.95
2022-10-03T01:43:06.641Z,9.92
2022-10-03T01:46:06.476Z,9.91
2022-10-03T01:49:06.819Z,9.89
2022-10-03T01:52:04.172Z,9.84
2022-10-03T01:55:03.169Z,9.81
2022-10-03T01:58:00.519Z,9.79
2022-10-03T02:00:59.750Z,9.78
2022-10-03T02:03:55.648Z,9.76
2022-10-03T02:06:58.736Z,9.75
2022-10-03T02:09:59.778Z,9.74
2022-10-03T02:13:00.412Z,9.71
2022-10-03T02:16:02.308Z,9.71
2022-10-03T02:18:58.403Z,9.72
2022-10-03T02:21:52.474Z,9.68
2022-10-03T02:24:50.961Z,9.63
2022-10-03T02:28:02.812Z,9.61
2022-10-03T02:31:15.761Z,9.62
2022-10-03T02:34:45.599Z,9.64
2022-10-03T02:38:01.002Z,9.67
2022-10-03T02:41:18.811Z,9.68
2022-10-03T02:44:36.446Z,9.68
2022-10-03T02:48:31.198Z,9.66
2022-10-03T02:51:46.124Z,9.68
2022-10-03T02:54:57.400Z,9.69
2022-10-03T02:58:16.462Z,9.72
2022-10-03T03:01:49.997Z,9.73
2022-10-03T03:05:17.283Z,9.76
2022-10-03T03:08:43.147Z,9.80
2022-10-03T03:11:58.936Z,9.83
2022-10-03T03:15:26.906Z,9.88
2022-10-03T03:18:28.331Z,9.90
2022-10-03T03:21:27.723Z,9.94
2022-10-03T03:24:42.429Z,9.95
2022-10-03T03:27:49.574Z,9.96
2022-10-03T03:30:44.718Z,9.95
2022-10-03T03:33:41.050Z,9.96
2022-10-03T03:36:39.246Z,9.98
2022-10-03T03:39:49.282Z,10.04
2022-10-03T03:42:49.894Z,10.05
2022-10-03T03:45:53.888Z,10.08
2022-10-03T03:49:09.610Z,10.09
2022-10-03T03:52:08.757Z,10.11
2022-10-03T03:55:17.841Z,10.13
2022-10-03T03:58:32.747Z,10.16
2022-10-03T04:01:46.195Z,10.19
2022-10-03T04:04:56.605Z,10.22
2022-10-03T04:08:11.748Z,10.24
2022-10-03T04:11:16.512Z,10.27
2022-10-03T04:14:39.851Z,10.29
2022-10-03T04:18:02.007Z,10.28
2022-10-03T04:21:01.590Z,10.30
2022-10-03T04:24:07.783Z,10.30
2022-10-03T04:27:11.897Z,10.34
2022-10-03T04:30:08.851Z,10.35
2022-10-03T04:33:19.715Z,10.38
2022-10-03T04:36:38.576Z,10.40
2022-10-03T04:39:36.438Z,10.41
2022-10-03T04:42:50.217Z,10.43
2022-10-03T04:46:00.394Z,10.46
2022-10-03T04:49:04.769Z,10.49
2022-10-03T04:52:00.283Z,10.51
2022-10-03T04:54:56.437Z,10.55
2022-10-03T04:57:53.251Z,10.56
2022-10-03T05:00:54.066Z,10.60
2022-10-03T05:04:05.587Z,10.64
2022-10-03T05:07:05.674Z,10.69
2022-10-03T05:09:58.658Z,10.71
2022-10-03T05:12:57.139Z,10.75
2022-10-03T05:15:57.251Z,10.79
2022-10-03T05:18:52.352Z,10.83
2022-10-03T05:21:49.263Z,10.86
2022-10-03T05:24:45.184Z,10.91
2022-10-03T05:27:44.994Z,10.93
2022-10-03T05:30:42.954Z,10.97
2022-10-03T05:33:44.738Z,11.02
2022-10-03T05:36:54.109Z,11.05
2022-10-03T05:39:53.716Z,11.08
2022-10-03T05:43:08.274Z,11.10
2022-10-03T05:46:08.077Z,11.12
2022-10-03T05:49:09.954Z,11.12
2022-10-03T05:52:22.875Z,11.16
2022-10-03T05:55:29.243Z,11.18
2022-10-03T05:58:46.051Z,11.21
2022-10-03T06:02:24.351Z,11.22
2022-10-03T06:05:23.170Z,11.25
2022-10-03T06:08:39.359Z,11.28
2022-10-03T06:11:57.393Z,11.32
2022-10-03T06:15:12.163Z,11.37
2022-10-03T06:18:12.573Z,11.41
2022-10-03T06:21:42.560Z,11.47
2022-10-03T06:25:03.420Z,11.53
2022-10-03T06:28:21.541Z,11.59
2022-10-03T06:31:41.894Z,11.67
2022-10-03T06:35:01.439Z,11.75
2022-10-03T06:38:22.753Z,11.83
2022-10-03T06:41:40.877Z,11.91
2022-10-03T06:45:01.495Z,11.98
2022-10-03T06:48:08.455Z,12.07
2022-10-03T06:51:17.674Z,12.15
2022-10-03T06:54:50.911Z,12.23
2022-10-03T06:58:16.733Z,12.35
2022-10-03T07:01:33.615Z,12.48
2022-10-03T07:05:05.721Z,12.59
2022-10-03T07:08:39.722Z,12.74
2022-10-03T07:11:49.379Z,12.88
2022-10-03T07:15:16.374Z,13.00
2022-10-03T07:18:34.622Z,13.15
2022-10-03T07:22:00.707Z,13.27
2022-10-03T07:25:20.221Z,13.40
2022-10-03T07:28:33.471Z,13.53
2022-10-03T07:31:35.751Z,13.64
2022-10-03T07:35:06.523Z,13.77
2022-10-03T07:38:49.798Z,13.93
2022-10-03T07:41:46.356Z,14.10
2022-10-03T07:45:29.935Z,14.22
2022-10-03T07:48:45.239Z,14.41
2022-10-03T07:51:44.042Z,14.58
2022-10-03T07:55:01.734Z,14.75
2022-10-03T07:58:13.632Z,14.90
2022-10-03T08:01:24.711Z,15.07
2022-10-03T08:04:54.833Z,15.20
2022-10-03T08:08:02.975Z,15.36
2022-10-03T08:11:43.202Z,15.49
2022-10-03T08:14:48.013Z,15.60
2022-10-03T08:18:06.605Z,15.73
2022-10-03T08:20:58.378Z,15.82
2022-10-03T08:24:16.045Z,15.91
2022-10-03T08:27:24.399Z,16.02
2022-10-03T08:30:34.109Z,16.10
2022-10-03T08:33:56.661Z,16.18
2022-10-03T08:37:11.828Z,16.27
2022-10-03T08:40:41.952Z,16.36
2022-10-03T08:44:01.834Z,16.42
2022-10-03T08:47:31.879Z,16.47
2022-10-03T08:50:43.448Z,16.48
2022-10-03T08:54:04.675Z,16.52
2022-10-03T08:57:14.924Z,16.62
2022-10-03T09:00:15.272Z,16.76
2022-10-03T09:03:42.892Z,16.89
2022-10-03T09:07:18.653Z,17.06
2022-10-03T09:10:37.021Z,17.24
2022-10-03T09:14:03.257Z,17.41
2022-10-03T09:17:17.001Z,17.60
2022-10-03T09:20:27.464Z,17.80
2022-10-03T09:23:38.543Z,17.99
2022-10-03T09:27:04.772Z,18.19
2022-10-03T09:30:23.433Z,18.39
2022-10-03T09:33:59.345Z,18.56
2022-10-03T09:37:30.719Z,18.73
2022-10-03T09:40:37.006Z,18.91
2022-10-03T09:44:01.448Z,19.05
2022-10-03T09:47:27.765Z,19.18
2022-10-03T09:50:54.888Z,19.35
2022-10-03T09:54:23.178Z,19.55
2022-10-03T09:57:44.290Z,19.70
2022-10-03T10:00:50.494Z,19.83
2022-10-03T10:04:08.734Z,19.93
2022-10-03T10:07:45.170Z,20.06
2022-10-03T10:10:56.736Z,20.18
2022-10-03T10:14:23.915Z,20.30
2022-10-03T10:17:45.642Z,20.40
2022-10-03T10:21:19.864Z,20.50
2022-10-03T10:24:46.097Z,20.62
2022-10-03T10:28:11.988Z,20.74
2022-10-03T10:31:45.573Z,20.78
2022-10-03T10:34:59.884Z,20.83
2022-10-03T10:38:24.691Z,20.85
2022-10-03T10:41:58.700Z,20.90
2022-10-03T10:45:25.192Z,20.94
2022-10-03T10:48:46.462Z,21.03
2022-10-03T10:52:32.761Z,21.04
2022-10-03T10:56:03.090Z,21.07
2022-10-03T10:59:27.696Z,21.09
2022-10-03T11:02:48.593Z,21.07
2022-10-03T11:06:18.921Z,21.13
2022-10-03T11:09:41.680Z,21.19
2022-10-03T11:13:20.200Z,21.19
2022-10-03T11:16:53.423Z,21.12
2022-10-03T11:20:15.939Z,21.08
2022-10-03T11:23:52.622Z,21.09
2022-10-03T11:27:17.624Z,21.09
2022-10-03T11:30:20.921Z,21.16
2022-10-03T11:33:48.799Z,21.23
2022-10-03T11:37:17.280Z,21.28
2022-10-03T11:40:23.851Z,21.36
2022-10-03T11:43:52.769Z,21.44
2022-10-03T11:47:07.919Z,21.53
2022-10-03T11:50:25.963Z,21.65
2022-10-03T11:53:23.181Z,21.69
2022-10-03T11:56:40.684Z,21.77
2022-10-03T11:59:42.214Z,21.86
2022-10-03T12:03:00.303Z,21.95
2022-10-03T12:06:14.186Z,21.69
2022-10-03T12:09:15.433Z,21.32
2022-10-03T12:12:11.911Z,20.83
2022-10-03T12:15:14.450Z,20.54
2022-10-03T12:18:11.462Z,20.23
2022-10-03T12:21:10.127Z,19.99
2022-10-03T12:24:21.239Z,19.78
2022-10-03T12:27:21.617Z,19.60
2022-10-03T12:30:16.322Z,19.33
2022-10-03T12:33:19.714Z,19.15
2022-10-03T12:36:14.964Z,18.90
2022-10-03T12:39:20.379Z,18.74
2022-10-03T12:42:26.258Z,18.51
2022-10-03T12:45:25.200Z,18.27
2022-10-03T12:48:27.970Z,18.14
2022-10-03T12:51:43.237Z,18.08
2022-10-03T12:54:50.190Z,18.06
2022-10-03T12:57:50.703Z,18.06
2022-10-03T13:00:50.247Z,18.12
2022-10-03T13:03:51.823Z,18.15
2022-10-03T13:07:03.392Z,18.21
2022-10-03T13:10:03.963Z,18.23
2022-10-03T13:13:01.502Z,18.37
2022-10-03T13:16:24.113Z,18.49
2022-10-03T13:19:18.072Z,18.54
2022-10-03T13:22:25.726Z,18.56
2022-10-03T13:25:21.207Z,18.65
2022-10-03T13:28:16.374Z,18.78
2022-10-03T13:31:12.623Z,18.86
2022-10-03T13:34:06.670Z,18.94
2022-10-03T13:37:04.522Z,19.03
2022-10-03T13:39:55.327Z,19.14
2022-10-03T13:42:50.561Z,19.25
2022-10-03T13:45:44.177Z,19.38
2022-10-03T13:48:34.496Z,19.45
2022-10-03T13:51:32.458Z,19.53
2022-10-03T13:54:39.035Z,19.61
2022-10-03T13:57:34.093Z,19.68
2022-10-03T14:00:27.718Z,19.77
2022-10-03T14:03:29.425Z,19.84
2022-10-03T14:06:26.004Z,19.87
2022-10-03T14:09:40.771Z,19.90
2022-10-03T14:12:55.307Z,19.90
2022-10-03T14:15:53.376Z,19.87
2022-10-03T14:18:52.295Z,19.85
2022-10-03T14:22:22.835Z,19.84
2022-10-03T14:25:22.614Z,19.84
2022-10-03T14:28:20.492Z,19.83
2022-10-03T14:31:15.929Z,19.77
2022-10-03T14:34:15.433Z,19.68
2022-10-03T14:37:18.493Z,19.57
2022-10-03T14:40:17.284Z,19.58
2022-10-03T14:43:28.859Z,19.57
2022-10-03T14:46:23.736Z,19.57
2022-10-03T14:49:51.100Z,19.55
2022-10-03T14:52:38.791Z,19.50
2022-10-03T14:55:31.863Z,19.47
2022-10-03T14:58:23.824Z,19.42
2022-10-03T15:01:13.954Z,19.38
2022-10-03T15:04:06.265Z,19.32
2022-10-03T15:06:56.817Z,19.29
2022-10-03T15:09:49.877Z,19.25
2022-10-03T15:12:42.060Z,19.23
2022-10-03T15:15:35.458Z,19.17
2022-10-03T15:18:26.023Z,19.12
2022-10-03T15:21:18.240Z,19.08
2022-10-03T15:24:12.294Z,19.02
2022-10-03T15:27:04.395Z,18.98
2022-10-03T15:29:57.441Z,18.90
2022-10-03T15:32:49.231Z,18.83
2022-10-03T15:35:41.231Z,18.75
2022-10-03T15:38:35.809Z,18.66
2022-10-03T15:41:35.623Z,18.57
2022-10-03T15:44:33.184Z,18.47
2022-10-03T15:47:24.004Z,18.41
2022-10-03T15:50:21.839Z,18.30
2022-10-03T15:53:34.886Z,18.22
2022-10-03T15:56:27.629Z,18.11
2022-10-03T15:59:22.827Z,18.00
2022-10-03T16:02:19.944Z,17.90
2022-10-03T16:05:21.030Z,17.79
2022-10-03T16:08:16.746Z,17.67
2022-10-03T16:11:14.062Z,17.57
2022-10-03T16:14:22.066Z,17.45
2022-10-03T16:17:18.449Z,17.35
2022-10-03T16:20:18.052Z,17.24
2022-10-03T16:23:17.462Z,17.13
2022-10-03T16:26:12.763Z,17.02
2022-10-03T16:29:13.605Z,16.92
2022-10-03T16:32:06.942Z,16.83
2022-10-03T16:35:00.526Z,16.73
2022-10-03T16:37:52.519Z,16.62
2022-10-03T16:40:41.100Z,16.53
2022-10-03T16:43:32.278Z,16.43
2022-10-03T16:46:23.468Z,16.33
2022-10-03T16:49:47.521Z,16.24
2022-10-03T16:52:39.545Z,16.14
2022-10-03T16:55:32.515Z,16.06
2022-10-03T16:58:27.694Z,15.98
2022-10-03T17:01:27.943Z,15.89
2022-10-03T17:04:23.039Z,15.84
2022-10-03T17:07:21.929Z,15.77
2022-10-03T17:10:30.042Z,15.72
2022-10-03T17:13:24.737Z,15.62
2022-10-03T17:16:24.824Z,15.57
2022-10-03T17:19:33.081Z,15.50
2022-10-03T17:22:26.380Z,15.44
2022-10-03T17:25:35.206Z,15.37
2022-10-03T17:28:38.437Z,15.29
2022-10-03T17:31:33.476Z,15.24
2022-10-03T17:34:28.312Z,15.20
2022-10-03T17:37:41.923Z,15.15
2022-10-03T17:40:49.484Z,15.10
2022-10-03T17:43:46.232Z,15.07
2022-10-03T17:46:42.903Z,15.04
2022-10-03T17:49:45.023Z,14.99
2022-10-03T17:52:36.830Z,14.95
2022-10-03T17:55:30.947Z,14.91
2022-10-03T17:58:25.021Z,14.87
2022-10-03T18:01:17.487Z,14.82
2022-10-03T18:04:14.820Z,14.78
2022-10-03T18:07:09.778Z,14.73
2022-10-03T18:10:00.188Z,14.67
2022-10-03T18:12:51.720Z,14.60
2022-10-03T18:15:57.336Z,14.55
2022-10-03T18:19:05.047Z,14.50
2022-10-03T18:22:14.202Z,14.46
2022-10-03T18:25:27.858Z,14.40
2022-10-03T18:28:23.184Z,14.33
2022-10-03T18:31:17.325Z,14.27
2022-10-03T18:34:13.701Z,14.20
2022-10-03T18:37:17.486Z,14.14
2022-10-03T18:40:18.126Z,14.07
2022-10-03T18:43:07.899Z,13.99
2022-10-03T18:46:03.607Z,13.94
2022-10-03T18:49:30.090Z,13.87
2022-10-03T18:52:19.567Z,13.79
2022-10-03T18:55:19.264Z,13.73
2022-10-03T18:58:18.456Z,13.64
2022-10-03T19:01:16.900Z,13.58
2022-10-03T19:04:10.879Z,13.49
2022-10-03T19:07:01.864Z,13.43
2022-10-03T19:10:17.903Z,13.38
2022-10-03T19:13:17.926Z,13.26
2022-10-03T19:16:19.145Z,13.16
2022-10-03T19:19:12.838Z,13.07
2022-10-03T19:22:05.478Z,13.01
2022-10-03T19:24:59.112Z,12.93
2022-10-03T19:27:52.891Z,12.89
2022-10-03T19:30:42.398Z,12.83
2022-10-03T19:33:37.084Z,12.77
2022-10-03T19:36:29.662Z,12.69
2022-10-03T19:39:20.134Z,12.60
2022-10-03T19:42:28.134Z,12.51
2022-10-03T19:45:19.446Z,12.42
2022-10-03T19:48:12.049Z,12.37
2022-10-03T19:51:07.283Z,12.32
2022-10-03T19:53:57.900Z,12.26
2022-10-03T19:56:47.473Z,12.22
2022-10-03T19:59:45.697Z,12.15
2022-10-03T20:02:34.875Z,12.09
2022-10-03T20:05:27.282Z,12.03
2022-10-03T20:08:26.231Z,11.98
2022-10-03T20:11:27.309Z,11.93
2022-10-03T20:14:23.138Z,11.88
2022-10-03T20:17:15.594Z,11.84
2022-10-03T20:20:09.172Z,11.78
2022-10-03T20:23:04.776Z,11.71
2022-10-03T20:25:58.453Z,11.66
2022-10-03T20:29:04.468Z,11.61
2022-10-03T20:31:59.974Z,11.55
2022-10-03T20:34:54.425Z,11.52
2022-10-03T20:37:52.650Z,11.48
2022-10-03T20:40:44.884Z,11.45
2022-10-03T20:43:43.415Z,11.42
2022-10-03T20:46:40.127Z,11.40
2022-10-03T20:49:32.909Z,11.37
2022-10-03T20:52:23.864Z,11.35
2022-10-03T20:55:21.579Z,11.29
2022-10-03T20:58:18.575Z,11.26
2022-10-03T21:01:11.641Z,11.23
2022-10-03T21:04:10.936Z,11.18
2022-10-03T21:07:04.038Z,11.14
2022-10-03T21:10:00.534Z,11.10
2022-10-03T21:12:51.635Z,11.06
2022-10-03T21:15:46.221Z,11.00
2022-10-03T21:18:38.169Z,10.98
2022-10-03T21:21:33.839Z,10.94
2022-10-03T21:24:28.366Z,10.90
2022-10-03T21:27:19.911Z,10.83
2022-10-03T21:30:18.121Z,10.78
2022-10-03T21:33:12.246Z,10.69
2022-10-03T21:36:08.956Z,10.62
2022-10-03T21:39:05.661Z,10.55
2022-10-03T21:42:06.357Z,10.52
2022-10-03T21:45:22.552Z,10.48
2022-10-03T21:48:21.922Z,10.44
2022-10-03T21:51:26.692Z,10.42
2022-10-03T21:54:30.964Z,10.39
2022-10-03T21:57:30.213Z,10.34
2022-10-03T22:00:20.191Z,10.31
2022-10-03T22:03:16.887Z,10.28
2022-10-03T22:06:13.683Z,10.25
2022-10-03T22:09:04.683Z,10.21
2022-10-03T22:11:58.752Z,10.19
2022-10-03T22:14:53.050Z,10.16
2022-10-03T22:17:50.607Z,10.12
2022-10-03T22:20:53.699Z,10.09
2022-10-03T22:23:54.334Z,10.05
2022-10-03T22:26:49.560Z,10.02
2022-10-03T22:29:44.924Z,9.97
2022-10-03T22:32:40.631Z,9.94
2022-10-03T22:35:46.829Z,9.90
2022-10-03T22:38:36.613Z,9.89
2022-10-03T22:41:30.901Z,9.86
2022-10-03T22:44:23.238Z,9.83
2022-10-03T22:47:17.594Z,9.79
2022-10-03T22:50:13.029Z,9.76
2022-10-03T22:53:04.158Z,9.73
2022-10-03T22:55:58.379Z,9.69
2022-10-03T22:58:47.174Z,9.66
2022-10-03T23:01:38.183Z,9.63
2022-10-03T23:04:32.877Z,9.60
2022-10-03T23:07:51.869Z,9.53
2022-10-03T23:10:54.799Z,9.49
2022-10-03T23:13:45.016Z,9.47
2022-10-03T23:16:48.485Z,9.43
2022-10-03T23:19:50.173Z,9.38
2022-10-03T23:22:43.159Z,9.33
2022-10-03T23:25:40.727Z,9.31
2022-10-03T23:28:43.267Z,9.24
2022-10-03T23:31:52.831Z,9.22
2022-10-03T23:35:09.948Z,9.18
2022-10-03T23:38:00.042Z,9.14
2022-10-03T23:40:50.306Z,9.10
2022-10-03T23:43:48.321Z,9.08
2022-10-03T23:46:37.945Z,9.05
2022-10-03T23:49:28.152Z,9.02
2022-10-03T23:52:21.957Z,8.99
2022-10-03T23:55:20.725Z,8.97
2022-10-03T23:58:28.027Z,8.95
